Time;durP1;ratioP1;P1;durP2;ratioP2;P2;SDS_P1;SDS_P2;PMS_P1;PMS_P2;Temp;Humidity;BMP_temperature;BMP_pressure;BME280_temperature;BME280_humidity;BME280_pressure;Samples;Min_cycle;Max_cycle;Signal;HPM_P1;HPM_P2
2022/06/14 00:01:32;;;;;;;23.65;12.90;;;;;;;17.32;100.00;97397.41;5014354;28;20063;-75
2022/06/14 00:03:58;;;;;;;27.15;12.65;;;;;;;17.26;100.00;97400.66;5014309;28;20400;-75
2022/06/14 00:06:25;;;;;;;23.73;13.73;;;;;;;17.23;100.00;97390.13;5029954;28;20036;-76
2022/06/14 00:08:51;;;;;;;27.35;13.85;;;;;;;17.22;100.00;97396.56;4997526;28;20056;-74
2022/06/14 00:11:29;;;;;;;23.10;13.48;;;;;;;17.21;100.00;97397.53;5030195;28;20484;-75
2022/06/14 00:13:57;;;;;;;21.90;13.68;;;;;;;17.03;100.00;97386.56;5013638;28;20041;-74
2022/06/14 00:16:24;;;;;;;24.38;13.25;;;;;;;17.06;100.00;97399.78;5027578;28;20029;-75
2022/06/14 00:18:50;;;;;;;25.50;13.70;;;;;;;17.06;100.00;97396.22;5013361;28;20036;-76
2022/06/14 00:21:16;;;;;;;16.55;13.38;;;;;;;17.02;100.00;97397.47;5008894;28;20022;-75
2022/06/14 00:23:42;;;;;;;21.00;13.20;;;;;;;17.01;100.00;97380.41;5001769;28;20025;-76
2022/06/14 00:26:09;;;;;;;24.92;12.93;;;;;;;16.95;100.00;97377.44;5013020;28;20377;-76
2022/06/14 00:28:35;;;;;;;21.58;13.32;;;;;;;16.95;100.00;97385.53;5029832;28;20481;-75
2022/06/14 00:31:06;;;;;;;16.23;12.15;;;;;;;16.95;100.00;97393.66;5029977;28;20485;-76
2022/06/14 00:33:32;;;;;;;18.55;12.85;;;;;;;16.90;100.00;97394.03;4997023;28;20037;-76
2022/06/14 00:36:04;;;;;;;25.88;12.25;;;;;;;16.85;100.00;97382.81;5002492;28;20029;-76
2022/06/14 00:38:30;;;;;;;23.35;13.50;;;;;;;16.82;100.00;97385.78;5007687;28;20030;-76
2022/06/14 00:40:58;;;;;;;17.85;13.38;;;;;;;16.90;100.00;97393.19;5012612;28;20088;-76
2022/06/14 00:43:26;;;;;;;18.17;13.27;;;;;;;16.87;100.00;97398.88;5012308;28;20041;-76
2022/06/14 00:45:52;;;;;;;23.27;13.35;;;;;;;16.84;100.00;97391.03;4991415;28;20501;-76
2022/06/14 00:48:25;;;;;;;23.70;13.75;;;;;;;16.74;100.00;97389.16;5013223;28;20481;-77
2022/06/14 00:51:07;;;;;;;21.77;13.55;;;;;;;16.89;100.00;97399.59;5029356;28;20037;-76
2022/06/14 00:53:57;;;;;;;19.30;12.23;;;;;;;16.91;100.00;97405.72;5010597;28;20092;-77
2022/06/14 00:56:23;;;;;;;21.42;13.10;;;;;;;16.75;100.00;97401.69;5000748;28;20045;-76
2022/06/14 00:58:53;;;;;;;19.67;12.82;;;;;;;16.71;100.00;97394.84;5029313;28;20033;-76
2022/06/14 01:01:23;;;;;;;20.65;12.48;;;;;;;16.65;100.00;97392.69;5029491;28;20117;-76
2022/06/14 01:03:57;;;;;;;24.48;14.05;;;;;;;16.70;100.00;97403.09;5029677;28;20044;-76
2022/06/14 01:06:24;;;;;;;18.60;13.93;;;;;;;16.73;100.00;97400.94;5012178;28;20411;-76
2022/06/14 01:08:57;;;;;;;22.90;13.07;;;;;;;16.71;100.00;97399.38;5012748;28;20473;-76
2022/06/14 01:11:32;;;;;;;20.77;13.38;;;;;;;16.64;100.00;97388.25;5006825;28;20061;-76
2022/06/14 01:14:00;;;;;;;47.63;14.10;;;;;;;16.68;100.00;97392.41;5029203;28;20057;-76
2022/06/14 01:16:26;;;;;;;26.15;14.80;;;;;;;16.69;100.00;97401.38;5029835;28;20131;-76
2022/06/14 01:18:51;;;;;;;27.35;15.55;;;;;;;16.68;100.00;97392.41;5013037;28;20048;-77
2022/06/14 01:21:17;;;;;;;29.30;15.45;;;;;;;16.62;100.00;97376.75;5012504;28;20485;-73
2022/06/14 01:23:43;;;;;;;33.85;15.52;;;;;;;16.56;100.00;97385.41;5013259;28;20029;-76
2022/06/14 01:26:22;;;;;;;28.02;15.82;;;;;;;16.54;100.00;97387.38;5012572;28;20029;-75
2022/06/14 01:28:51;;;;;;;26.35;16.00;;;;;;;16.56;100.00;97388.09;5000775;28;20034;-75
2022/06/14 01:31:18;;;;;;;23.83;15.93;;;;;;;16.55;100.00;97394.47;5000361;28;20184;-75
2022/06/14 01:33:47;;;;;;;25.45;16.63;;;;;;;16.58;100.00;97396.06;5009765;28;20511;-74
2022/06/14 01:36:17;;;;;;;26.13;16.17;;;;;;;16.55;100.00;97382.84;5001960;28;20030;-75
2022/06/14 01:38:45;;;;;;;25.45;16.52;;;;;;;16.55;100.00;97385.56;5014630;28;20480;-75
2022/06/14 01:41:47;;;;;;;45.50;17.17;;;;;;;16.57;100.00;97387.13;4998124;28;20034;-77
2022/06/14 01:44:39;;;;;;;24.30;16.83;;;;;;;16.51;100.00;97386.75;5004891;28;20416;-76
2022/06/14 01:47:26;;;;;;;26.02;15.45;;;;;;;16.50;100.00;97380.50;5030874;28;20034;-75
2022/06/14 01:53:43;;;;;;;22.27;16.05;;;;;;;16.51;100.00;97382.22;5034329;28;20088;-74
2022/06/14 01:56:20;;;;;;;24.17;15.63;;;;;;;16.53;100.00;97382.94;5042576;28;20033;-74
2022/06/14 01:58:59;;;;;;;31.65;18.05;;;;;;;16.52;100.00;97386.63;5043053;28;20400;-73
2022/06/14 02:01:27;;;;;;;30.30;17.67;;;;;;;16.52;100.00;97386.63;5036119;28;20037;-76
2022/06/14 02:04:39;;;;;;;25.30;16.80;;;;;;;16.54;100.00;97390.09;5036620;28;20033;-74
2022/06/14 02:07:21;;;;;;;27.05;19.20;;;;;;;16.56;100.00;97396.19;5019401;28;20083;-74
2022/06/14 02:09:46;;;;;;;32.50;18.17;;;;;;;16.53;100.00;97398.28;5015221;28;20034;-76
2022/06/14 02:12:14;;;;;;;38.03;19.45;;;;;;;16.55;100.00;97399.88;5015934;28;20103;-77
2022/06/14 02:14:48;;;;;;;43.70;20.88;;;;;;;16.61;100.00;97410.13;5032128;28;20025;-76
2022/06/14 02:17:38;;;;;;;27.45;17.42;;;;;;;16.68;100.00;97405.91;5032227;28;20437;-76
2022/06/14 02:20:09;;;;;;;21.52;15.43;;;;;;;16.66;100.00;97410.59;5031792;28;20036;-76
2022/06/14 02:22:43;;;;;;;31.15;16.23;;;;;;;16.75;100.00;97406.22;5015105;28;20063;-76
2022/06/14 02:25:12;;;;;;;20.90;14.80;;;;;;;16.63;100.00;97408.19;5015685;28;20025;-76
2022/06/14 02:27:49;;;;;;;26.77;15.02;;;;;;;16.65;100.00;97408.03;5015610;28;20052;-76
2022/06/14 02:30:43;;;;;;;39.45;16.73;;;;;;;16.67;100.00;97419.56;5015521;28;20465;-76
2022/06/14 02:33:22;;;;;;;25.52;15.98;;;;;;;16.68;100.00;97419.41;5009130;28;20488;-77
2022/06/14 02:35:52;;;;;;;32.78;16.05;;;;;;;16.75;100.00;97428.69;5014792;28;20040;-76
2022/06/14 02:38:30;;;;;;;23.98;14.40;;;;;;;16.80;100.00;97420.16;5015449;28;20033;-76
2022/06/14 02:40:59;;;;;;;33.33;15.00;;;;;;;16.90;100.00;97421.06;5032045;28;20029;-75
2022/06/14 02:43:34;;;;;;;31.83;16.40;;;;;;;16.95;100.00;97423.38;5015331;28;20029;-75
2022/06/14 02:46:14;;;;;;;36.95;14.25;;;;;;;16.99;100.00;97420.25;5031684;28;20091;-75
2022/06/14 02:48:46;;;;;;;25.75;14.63;;;;;;;17.00;100.00;97423.81;5031578;28;20030;-75
2022/06/14 02:51:41;;;;;;;27.50;14.83;;;;;;;17.07;100.00;97430.38;5002589;28;20026;-76
2022/06/14 02:54:14;;;;;;;16.58;12.73;;;;;;;17.08;100.00;97429.38;4997173;28;20276;-75
2022/06/14 02:56:39;;;;;;;;;;;;;;;16.97;100.00;97415.97;5015895;28;20025;-77
2022/06/14 02:59:21;;;;;;;21.73;13.98;;;;;;;16.87;100.00;97409.69;5031555;28;19928;-77
2022/06/14 03:02:01;;;;;;;26.35;14.30;;;;;;;16.79;100.00;97413.06;5004859;28;20061;-76
2022/06/14 03:04:55;;;;;;;26.98;14.82;;;;;;;16.80;100.00;97410.22;5013185;28;20095;-76
2022/06/14 03:07:29;;;;;;;26.88;16.67;;;;;;;16.68;100.00;97403.22;5025337;28;20068;-76
2022/06/14 03:09:54;;;;;;;31.67;17.73;;;;;;;16.78;100.00;97417.63;5031458;28;20026;-76
2022/06/14 03:12:38;;;;;;;30.80;18.00;;;;;;;16.86;100.00;97429.59;5006327;28;20049;-77
2022/06/14 03:15:07;;;;;;;82.28;31.60;;;;;;;16.87;100.00;97425.88;5031251;28;20091;-76
2022/06/14 03:18:12;;;;;;;61.22;25.50;;;;;;;17.02;100.00;97435.31;5014556;28;20041;-76
2022/06/14 03:21:15;;;;;;;32.47;17.33;;;;;;;17.09;100.00;97436.50;5006235;28;20493;-76
2022/06/14 03:23:47;;;;;;;25.90;13.07;;;;;;;17.17;100.00;97428.53;5014149;28;20099;-76
2022/06/14 03:26:33;;;;;;;25.85;12.85;;;;;;;17.09;100.00;97421.13;4998357;28;20515;-77
2022/06/14 03:29:29;;;;;;;86.47;15.52;;;;;;;17.05;100.00;97429.63;4999996;28;20034;-76
2022/06/14 03:32:00;;;;;;;122.95;17.77;;;;;;;16.99;100.00;97422.09;5010695;28;20053;-76
2022/06/14 03:34:36;;;;;;;36.80;16.63;;;;;;;17.00;100.00;97432.78;5030586;28;20030;-76
2022/06/14 03:37:02;;;;;;;170.25;18.80;;;;;;;17.01;100.00;97439.03;5011402;28;20062;-76
2022/06/14 03:39:35;;;;;;;144.10;19.63;;;;;;;17.05;100.00;97440.44;4997812;28;20033;-76
2022/06/14 03:42:04;;;;;;;121.75;19.98;;;;;;;17.10;100.00;97441.75;4995509;28;20092;-76
2022/06/14 03:44:30;;;;;;;126.45;19.90;;;;;;;17.10;100.00;97432.81;5013954;28;20562;-76
2022/06/14 03:47:19;;;;;;;135.35;18.95;;;;;;;17.19;100.00;97437.38;5030675;28;20029;-76
2022/06/14 03:50:40;;;;;;;79.25;18.92;;;;;;;17.33;100.00;97442.38;5000829;28;20033;-77
2022/06/14 03:53:27;;;;;;;128.20;18.27;;;;;;;17.27;100.00;97441.09;4951560;29;20042;-76
2022/06/14 03:56:18;;;;;;;29.10;16.48;;;;;;;17.33;100.00;97439.69;5006073;28;20498;-83
2022/06/14 03:58:50;;;;;;;24.30;15.65;;;;;;;17.39;100.00;97449.94;5029380;28;20037;-84
2022/06/14 04:01:19;;;;;;;48.28;18.02;;;;;;;17.32;100.00;97441.53;5029971;28;20033;-76
2022/06/14 04:03:55;;;;;;;98.65;18.23;;;;;;;17.16;100.00;97443.06;5001421;28;20026;-78
2022/06/14 04:06:35;;;;;;;53.22;17.63;;;;;;;17.25;100.00;97451.19;5030518;28;20100;-76
2022/06/14 04:09:26;;;;;;;43.75;17.20;;;;;;;17.39;100.00;97449.94;5013621;28;20515;-76
2022/06/14 04:12:03;;;;;;;24.00;14.52;;;;;;;17.54;100.00;97458.50;5013707;28;20037;-74
2022/06/14 04:14:56;;;;;;;42.30;14.43;;;;;;;17.66;100.00;97451.97;5008842;28;20480;-75
2022/06/14 04:17:36;;;;;;;62.30;15.00;;;;;;;17.59;100.00;97457.13;5028859;28;20040;-76
2022/06/14 04:20:28;;;;;;;49.53;14.75;;;;;;;17.51;100.00;97453.34;5013261;28;20106;-77
2022/06/14 04:23:15;;;;;;;45.50;15.10;;;;;;;17.65;100.00;97447.59;5005422;28;20473;-76
2022/06/14 04:26:03;;;;;;;46.95;14.60;;;;;;;17.82;100.00;97458.56;5034879;28;20033;-76
2022/06/14 04:28:54;;;;;;;38.95;14.02;;;;;;;17.74;100.00;97457.56;5043135;28;20688;-74
2022/06/14 04:31:37;;;;;;;80.72;15.52;;;;;;;17.72;100.00;97470.34;5013536;28;20044;-77
2022/06/14 04:34:13;;;;;;;;;;;;;;;17.75;100.00;97479.06;5032947;28;20030;-76
2022/06/14 04:36:47;;;;;;;27.15;14.43;;;;;;;17.68;100.00;97469.81;5012996;28;19983;-76
2022/06/14 04:39:19;;;;;;;28.67;15.80;;;;;;;17.82;100.00;97474.81;5011253;28;20065;-76
2022/06/14 04:41:49;;;;;;;44.03;16.08;;;;;;;17.94;100.00;97469.22;4996685;28;20124;-75
2022/06/14 04:44:32;;;;;;;36.55;15.88;;;;;;;18.03;100.00;97482.78;5029477;28;20175;-75
2022/06/14 04:47:11;;;;;;;39.20;16.38;;;;;;;18.14;100.00;97476.38;5031267;28;20061;-75
2022/06/14 04:49:48;;;;;;;21.38;13.73;;;;;;;17.93;100.00;97486.50;5012896;28;20491;-75
2022/06/14 04:52:20;;;;;;;16.20;11.73;;;;;;;18.22;100.00;97481.91;4996697;28;20029;-74
2022/06/14 04:54:48;;;;;;;18.80;11.88;;;;;;;18.37;100.00;97477.75;5007069;28;20079;-76
2022/06/14 04:57:24;;;;;;;15.07;12.18;;;;;;;18.44;100.00;97476.19;5012760;28;20029;-75
2022/06/14 05:00:01;;;;;;;17.88;12.10;;;;;;;18.59;100.00;97463.91;4989925;28;20059;-76
2022/06/14 05:02:30;;;;;;;25.85;15.13;;;;;;;19.43;100.00;97478.31;5029179;28;20033;-77
2022/06/14 05:05:02;;;;;;;23.92;14.43;;;;;;;19.99;100.00;97473.47;5013022;28;20496;-77
2022/06/14 05:07:39;;;;;;;20.88;13.32;;;;;;;20.60;100.00;97469.09;5028707;28;20018;-79
2022/06/14 05:10:10;;;;;;;20.95;13.13;;;;;;;20.60;100.00;97471.81;5029397;28;20029;-78
2022/06/14 05:12:41;;;;;;;18.83;12.77;;;;;;;20.54;100.00;97476.88;5046360;28;20192;-76
2022/06/14 05:15:19;;;;;;;19.10;12.27;;;;;;;20.62;100.00;97476.06;5033395;28;20032;-76
2022/06/14 05:17:49;;;;;;;18.40;12.07;;;;;;;20.71;100.00;97475.13;5016586;28;20458;-76
2022/06/14 05:20:27;;;;;;;17.77;12.07;;;;;;;21.00;100.00;97480.25;5033127;28;20033;-77
2022/06/14 05:23:17;;;;;;;16.90;10.98;;;;;;;22.05;100.00;97488.88;5034477;28;20068;-77
2022/06/14 05:25:48;;;;;;;18.40;10.57;;;;;;;22.57;100.00;97483.94;5016661;28;20480;-76
2022/06/14 05:28:17;;;;;;;17.23;10.30;;;;;;;22.52;100.00;97481.72;5033484;28;20033;-77
2022/06/14 05:30:57;;;;;;;16.60;10.60;;;;;;;22.30;100.00;97492.47;4997971;28;20041;-78
2022/06/14 05:33:32;;;;;;;22.25;11.95;;;;;;;22.38;100.00;97504.22;5046186;28;20040;-78
2022/06/14 05:36:04;;;;;;;19.83;12.23;;;;;;;22.13;100.00;97487.00;5026183;28;20377;-77
2022/06/14 05:38:53;;;;;;;19.30;12.52;;;;;;;22.11;100.00;97499.94;5016979;28;20108;-77
2022/06/14 05:41:27;;;;;;;19.13;10.45;;;;;;;22.17;100.00;97492.97;5008459;28;20064;-78
2022/06/14 05:44:06;;;;;;;24.67;11.02;;;;;;;22.26;100.00;97496.56;5016288;28;20029;-78
2022/06/14 05:47:09;;;;;;;14.70;9.93;;;;;;;22.25;100.00;97500.28;5013869;28;20030;-77
2022/06/14 05:49:38;;;;;;;16.02;8.98;;;;;;;22.50;100.00;97502.00;5016621;28;20484;-77
2022/06/14 05:52:12;;;;;;;12.93;9.68;;;;;;;22.49;100.00;97503.03;5006617;28;20914;-76
2022/06/14 05:54:57;;;;;;;16.02;10.68;;;;;;;22.72;100.00;97493.19;5012494;28;20018;-78
2022/06/14 05:57:48;;;;;;;21.88;10.32;;;;;;;23.25;100.00;97506.22;5044098;28;20061;-78
2022/06/14 06:00:16;;;;;;;11.27;9.60;;;;;;;23.89;93.61;97518.78;5023438;28;20099;-78
2022/06/14 06:02:52;;;;;;;15.35;9.13;;;;;;;23.94;92.88;97510.88;5032971;28;20017;-78
2022/06/14 06:05:24;;;;;;;41.97;26.10;;;;;;;24.10;92.48;97519.00;5032966;28;20500;-77
2022/06/14 06:08:25;;;;;;;31.48;15.27;;;;;;;24.85;87.61;97521.94;5012964;28;20026;-77
2022/06/14 06:10:53;;;;;;;29.33;11.10;;;;;;;25.39;83.05;97513.50;5029787;28;20029;-78
2022/06/14 06:13:30;;;;;;;14.40;9.77;;;;;;;25.67;80.88;97515.41;5032246;28;20049;-78
2022/06/14 06:16:02;;;;;;;18.35;9.48;;;;;;;25.55;80.53;97518.81;5032301;28;20033;-78
2022/06/14 06:18:38;;;;;;;25.45;15.45;;;;;;;25.52;79.95;97513.72;5032465;28;20068;-77
2022/06/14 06:21:04;;;;;;;14.65;10.73;;;;;;;26.21;77.97;97524.13;5016209;28;20484;-78
2022/06/14 06:23:33;;;;;;;22.20;10.02;;;;;;;27.36;72.30;97528.41;5033331;28;20061;-78
2022/06/14 06:25:59;;;;;;;22.42;9.32;;;;;;;28.75;65.19;97522.53;5016218;28;20123;-78
2022/06/14 06:28:41;;;;;;;35.00;23.70;;;;;;;30.57;58.87;97518.81;5032827;28;20113;-79
2022/06/14 06:31:23;;;;;;;19.70;8.50;;;;;;;32.28;51.84;97507.03;5010779;28;20129;-78
2022/06/14 06:33:50;;;;;;;17.45;12.95;;;;;;;30.27;56.19;97518.50;5003943;28;20065;-78
2022/06/14 06:36:43;;;;;;;14.25;11.50;;;;;;;30.38;55.70;97515.06;5013158;28;20069;-78
2022/06/14 06:39:33;;;;;;;15.68;10.05;;;;;;;29.13;59.90;97524.69;5015638;28;20036;-77
2022/06/14 06:42:25;;;;;;;17.67;12.85;;;;;;;28.24;63.01;97530.41;5032534;28;20033;-77
2022/06/14 06:44:53;;;;;;;;;;;;;;;26.71;68.46;97530.56;4999994;28;20026;-77
2022/06/14 06:47:34;;;;;;;16.33;10.98;;;;;;;26.53;71.09;97532.94;5031066;28;19908;-78
2022/06/14 06:50:08;;;;;;;11.48;8.30;;;;;;;26.83;72.14;97534.53;5044298;28;20400;-77
2022/06/14 06:52:40;;;;;;;30.27;19.70;;;;;;;27.38;70.40;97528.19;5015786;28;20025;-77
2022/06/14 06:55:14;;;;;;;20.75;10.05;;;;;;;27.46;68.68;97519.84;5017917;28;20501;-77
2022/06/14 06:57:41;;;;;;;16.25;11.27;;;;;;;27.61;68.58;97523.31;4996016;28;20025;-77
2022/06/14 07:00:09;;;;;;;29.02;13.85;;;;;;;28.86;64.21;97519.16;5032629;28;20053;-78
2022/06/14 07:02:41;;;;;;;24.45;12.13;;;;;;;30.52;58.36;97513.94;5037116;28;20037;-78
2022/06/14 07:05:09;;;;;;;15.23;9.00;;;;;;;32.31;52.12;97511.25;4995501;28;20018;-76
2022/06/14 07:07:37;;;;;;;13.70;8.88;;;;;;;32.55;50.89;97511.13;5014962;28;20022;-77
2022/06/14 07:10:16;;;;;;;17.73;9.30;;;;;;;32.72;50.19;97514.13;5035781;28;20076;-77
2022/06/14 07:12:54;;;;;;;17.73;8.18;;;;;;;32.63;50.20;97516.38;5011761;28;20040;-78
2022/06/14 07:15:26;;;;;;;17.63;8.85;;;;;;;32.45;50.34;97519.19;4995456;28;20029;-78
2022/06/14 07:18:05;;;;;;;12.80;8.55;;;;;;;32.66;48.84;97504.84;5011629;28;20026;-77
2022/06/14 07:20:37;;;;;;;18.60;8.93;;;;;;;32.94;48.77;97522.75;5011725;28;20041;-78
2022/06/14 07:23:15;;;;;;;20.48;8.88;;;;;;;34.48;45.66;97502.84;5011559;28;20409;-78
2022/06/14 07:26:03;;;;;;;20.15;9.02;;;;;;;34.54;45.56;97513.81;5028118;28;20030;-79
2022/06/14 07:28:39;;;;;;;13.45;8.30;;;;;;;34.85;45.14;97515.28;5011374;28;20017;-79
2022/06/14 07:31:08;;;;;;;24.55;8.02;;;;;;;33.59;46.70;97516.16;5009917;28;20618;-79
2022/06/14 07:33:35;;;;;;;15.90;7.82;;;;;;;34.50;45.96;97512.59;5011263;28;20021;-78
2022/06/14 07:36:07;;;;;;;20.48;13.77;;;;;;;34.63;45.53;97523.47;5011418;28;20121;-79
2022/06/14 07:38:52;;;;;;;13.35;7.75;;;;;;;34.90;43.59;97514.50;5027661;28;20544;-77
2022/06/14 07:41:30;;;;;;;12.60;7.43;;;;;;;35.84;42.75;97514.47;5019266;28;20049;-77
2022/06/14 07:44:07;;;;;;;23.63;8.50;;;;;;;34.21;45.20;97513.66;5007879;28;20033;-83
2022/06/14 07:46:36;;;;;;;13.90;7.05;;;;;;;32.83;46.99;97529.94;5013837;28;20033;-83
2022/06/14 07:49:11;;;;;;;18.65;7.20;;;;;;;32.30;49.45;97537.28;5012099;28;20116;-83
2022/06/14 07:51:42;;;;;;;8.13;7.22;;;;;;;31.43;50.61;97539.22;5012195;28;20025;-83
2022/06/14 07:54:24;;;;;;;10.13;7.10;;;;;;;30.17;53.64;97544.91;5012944;28;20041;-83
2022/06/14 07:57:15;;;;;;;9.00;7.03;;;;;;;30.54;54.84;97552.41;4995790;28;20030;-81
2022/06/14 07:59:54;;;;;;;13.57;8.18;;;;;;;31.80;52.34;97542.09;5011571;28;20026;-82
2022/06/14 08:02:34;;;;;;;11.65;6.80;;;;;;;31.67;50.82;97549.44;5027883;28;20034;-83
2022/06/14 08:05:10;;;;;;;8.27;5.97;;;;;;;30.64;52.20;97538.94;5010411;28;20481;-82
2022/06/14 08:07:36;;;;;;;9.57;6.40;;;;;;;31.91;49.82;97533.00;5007725;28;20033;-82
2022/06/14 08:10:12;;;;;;;12.80;5.63;;;;;;;34.44;41.69;97510.81;5012909;28;20018;-82
2022/06/14 08:12:47;;;;;;;5.85;4.70;;;;;;;33.77;42.73;97507.69;5011343;28;20465;-82
2022/06/14 08:15:18;;;;;;;10.13;5.35;;;;;;;34.35;40.99;97505.91;5028345;28;20095;-82
2022/06/14 08:17:45;;;;;;;10.85;4.65;;;;;;;35.99;38.57;97507.44;5027548;28;20025;-82
2022/06/14 08:20:22;;;;;;;8.90;5.22;;;;;;;37.09;35.99;97504.34;5006951;28;20026;-82
2022/06/14 08:22:51;;;;;;;5.63;4.97;;;;;;;37.08;35.79;97502.66;5026747;28;20453;-81
2022/06/14 08:25:21;;;;;;;9.93;4.05;;;;;;;36.97;35.92;97509.22;5027776;28;20072;-82
2022/06/14 08:28:33;;;;;;;7.40;3.80;;;;;;;36.51;36.37;97503.13;5010847;28;20030;-80
2022/06/14 08:31:08;;;;;;;7.47;4.35;;;;;;;35.88;37.70;97498.09;5008268;28;20041;-80
2022/06/14 08:33:38;;;;;;;13.43;4.90;;;;;;;35.83;38.24;97492.47;5010207;28;20436;-80
2022/06/14 08:36:07;;;;;;;8.07;4.03;;;;;;;36.24;36.62;97496.69;5027179;28;20124;-80
2022/06/14 08:38:49;;;;;;;16.60;4.85;;;;;;;35.64;37.73;97491.06;5028532;28;20141;-93
2022/06/14 08:41:52;;;;;;;20.42;5.60;;;;;;;36.85;36.14;97499.09;5027314;28;20073;-82
2022/06/14 08:44:25;;;;;;;13.57;5.30;;;;;;;35.64;36.44;97493.84;5010727;28;20444;-82
2022/06/14 08:46:55;;;;;;;21.02;5.32;;;;;;;34.86;39.16;97505.81;5010838;28;20026;-84
2022/06/14 08:49:49;;;;;;;19.98;6.15;;;;;;;34.35;39.19;97503.97;5012188;28;20025;-82
2022/06/14 08:52:23;;;;;;;7.78;4.30;;;;;;;32.96;41.75;97515.88;5026376;28;20053;-82
2022/06/14 08:54:56;;;;;;;5.10;3.75;;;;;;;34.05;38.56;97503.28;5010561;28;20037;-81
2022/06/14 08:57:25;;;;;;;4.90;4.40;;;;;;;36.72;36.04;97501.44;5010360;28;20069;-82
2022/06/14 09:00:14;;;;;;;4.97;3.28;;;;;;;39.47;32.91;97485.69;5010358;28;20036;-82
2022/06/14 09:02:56;;;;;;;5.55;3.88;;;;;;;37.63;33.84;97478.00;5011445;28;20092;-80
2022/06/14 09:05:53;;;;;;;13.68;3.90;;;;;;;37.36;35.26;97486.44;5010715;28;20033;-82
2022/06/14 09:08:49;;;;;;;21.95;4.32;;;;;;;35.97;35.57;97487.34;4983020;28;20544;-82
2022/06/14 09:11:34;;;;;;;7.07;3.45;;;;;;;37.00;34.61;97490.06;5001706;28;20085;-81
2022/06/14 09:14:18;;;;;;;11.20;4.22;;;;;;;40.05;30.56;97481.44;5027771;28;20080;-84
2022/06/14 09:16:55;;;;;;;3.13;2.83;;;;;;;39.80;29.61;97475.91;5010916;28;20164;-84
2022/06/14 09:19:37;;;;;;;17.23;5.25;;;;;;;40.10;30.25;97474.16;5011785;28;20029;-85
2022/06/14 09:22:06;;;;;;;8.45;6.93;;;;;;;41.05;28.94;97475.66;5011128;28;20037;-85
2022/06/14 09:24:52;;;;;;;12.80;3.75;;;;;;;41.23;27.98;97463.72;5012400;28;20092;-85
2022/06/14 09:27:42;;;;;;;7.57;2.92;;;;;;;41.14;27.94;97465.47;5010841;28;20029;-85
2022/06/14 09:30:47;;;;;;;6.57;4.97;;;;;;;41.70;28.00;97460.22;5011852;28;20022;-85
2022/06/14 09:33:55;;;;;;;25.52;3.25;;;;;;;41.20;27.63;97464.31;5010777;28;20111;-83
2022/06/14 09:36:42;;;;;;;5.97;2.78;;;;;;;41.35;27.47;97463.41;5010572;28;20030;-84
2022/06/14 09:39:25;;;;;;;8.55;2.80;;;;;;;39.78;29.64;97461.31;5010926;28;20470;-84
2022/06/14 09:42:12;;;;;;;7.00;3.00;;;;;;;38.86;30.33;97465.19;5007214;28;20525;-85
2022/06/14 09:44:56;;;;;;;10.40;3.47;;;;;;;38.78;29.92;97462.09;5011082;28;20112;-84
2022/06/14 09:48:05;;;;;;;10.00;2.78;;;;;;;37.82;31.77;97453.28;5011003;28;20548;-85
2022/06/14 09:51:18;;;;;;;4.93;2.60;;;;;;;39.14;29.86;97449.84;4985825;28;20543;-85
2022/06/14 09:54:21;;;;;;;2.80;2.22;;;;;;;39.15;30.43;97447.88;5021874;28;20046;-84
2022/06/14 09:57:45;;;;;;;6.32;3.90;;;;;;;40.47;28.66;97449.31;5010320;28;20501;-83
2022/06/14 10:00:32;;;;;;;8.10;4.03;;;;;;;41.23;27.25;97448.84;4980183;28;20073;-84
2022/06/14 10:03:16;;;;;;;11.80;7.18;;;;;;;40.32;27.88;97435.38;5012985;28;20025;-85
2022/06/14 10:05:55;;;;;;;11.18;6.72;;;;;;;38.94;28.44;97433.88;5013548;28;20021;-83
2022/06/14 10:08:39;;;;;;;7.00;3.65;;;;;;;40.05;28.91;97435.75;5011504;28;20469;-85
2022/06/14 10:11:44;;;;;;;4.38;2.67;;;;;;;36.86;31.76;97419.84;5012999;28;20461;-84
2022/06/14 10:14:27;;;;;;;3.65;2.63;;;;;;;38.64;29.88;97422.59;5004494;28;20050;-84
2022/06/14 10:17:33;;;;;;;3.78;2.63;;;;;;;37.02;31.30;97415.28;5013875;28;20409;-84
2022/06/14 10:20:34;;;;;;;8.77;4.22;;;;;;;34.81;35.33;97417.59;5011097;28;20095;-85
2022/06/14 10:23:19;;;;;;;7.03;3.17;;;;;;;34.31;37.33;97424.97;5014434;28;20030;-83
2022/06/14 10:29:21;;;;;;;15.95;2.75;;;;;;;35.32;33.81;97416.50;5011091;28;20533;-83
2022/06/14 10:32:05;;;;;;;6.53;3.50;;;;;;;36.66;31.22;97413.25;5006705;28;20076;-83
2022/06/14 10:34:40;;;;;;;4.78;2.35;;;;;;;38.23;30.36;97407.66;5014426;28;20108;-82
2022/06/14 10:37:25;;;;;;;3.53;2.22;;;;;;;39.30;27.72;97391.91;5013255;28;20156;-83
2022/06/14 10:40:12;;;;;;;10.50;2.00;;;;;;;40.37;27.58;97391.28;5014012;28;20092;-83
2022/06/14 10:43:17;;;;;;;6.22;2.08;;;;;;;40.29;26.52;97385.47;5006635;28;20058;-83
2022/06/14 10:45:54;;;;;;;4.90;2.15;;;;;;;40.57;25.94;97387.56;5015234;28;20040;-83
2022/06/14 10:48:47;;;;;;;11.65;2.35;;;;;;;40.95;24.84;97369.88;5013040;28;20030;-83
2022/06/14 10:51:36;;;;;;;9.10;2.25;;;;;;;40.99;24.52;97378.56;5012691;28;20018;-83
2022/06/14 10:54:29;;;;;;;7.45;2.03;;;;;;;40.48;25.92;97392.09;5012776;28;20030;-84
2022/06/14 10:57:15;;;;;;;6.00;2.65;;;;;;;38.13;27.99;97396.44;4994539;28;20026;-83
2022/06/14 10:59:59;;;;;;;14.60;4.03;;;;;;;36.49;30.16;97404.97;5029937;28;20100;-82
2022/06/14 11:02:52;;;;;;;10.77;3.50;;;;;;;37.67;29.06;97395.38;5013847;28;20033;-83
2022/06/14 11:05:48;;;;;;;5.80;2.58;;;;;;;39.59;25.12;97394.94;5029329;28;20030;-82
2022/06/14 11:08:29;;;;;;;8.98;1.58;;;;;;;39.70;23.45;97375.03;5013228;28;20096;-83
2022/06/14 11:11:13;;;;;;;8.02;1.92;;;;;;;40.59;21.45;97372.09;4994676;28;20027;-84
2022/06/14 11:14:08;;;;;;;5.18;1.75;;;;;;;40.04;21.99;97370.41;5011791;28;20147;-83
2022/06/14 11:16:41;;;;;;;3.83;1.58;;;;;;;39.70;22.84;97365.78;5018323;28;20049;-84
2022/06/14 11:22:19;;;;;;;6.50;1.87;;;;;;;37.03;24.64;97355.59;4989429;28;20125;-83
2022/06/14 11:25:03;;;;;;;4.35;1.63;;;;;;;37.16;24.71;97357.91;5026115;28;20481;-85
2022/06/14 11:27:47;;;;;;;5.30;1.92;;;;;;;36.66;24.48;97358.31;5012854;28;20038;-83
2022/06/14 11:30:50;;;;;;;8.77;2.00;;;;;;;36.61;25.20;97358.25;5013732;28;20084;-84
2022/06/14 11:33:25;;;;;;;9.75;1.70;;;;;;;36.06;25.31;97352.94;5021811;28;20097;-84
2022/06/14 11:36:35;;;;;;;7.28;1.90;;;;;;;36.17;25.19;97356.69;5006283;28;20038;-83
2022/06/14 11:39:28;;;;;;;11.98;2.25;;;;;;;36.07;24.95;97351.00;5011798;28;20161;-83
2022/06/14 11:41:54;;;;;;;4.10;1.60;;;;;;;35.95;25.39;97347.50;4977277;28;20038;-83
2022/06/14 11:44:52;;;;;;;6.85;1.80;;;;;;;36.10;26.26;97359.69;5028490;28;20030;-83
2022/06/14 11:47:30;;;;;;;13.48;2.13;;;;;;;35.45;25.99;97350.44;4994902;28;20066;-83
2022/06/14 11:50:12;;;;;;;8.68;2.10;;;;;;;35.61;25.72;97347.66;5008009;28;20045;-82
2022/06/14 11:52:50;;;;;;;9.25;1.70;;;;;;;35.49;24.56;97348.84;5012127;28;20030;-83
2022/06/14 11:55:27;;;;;;;5.05;1.65;;;;;;;34.29;25.96;97335.47;5009194;28;20030;-83
2022/06/14 11:58:21;;;;;;;5.00;1.73;;;;;;;34.05;25.60;97343.06;5021517;28;20495;-83
2022/06/14 12:01:31;;;;;;;2.65;1.85;;;;;;;33.60;27.41;97345.75;5012712;28;20118;-84
2022/06/14 12:04:15;;;;;;;7.13;1.80;;;;;;;34.06;27.78;97343.88;5005947;28;20042;-83
2022/06/14 12:07:13;;;;;;;3.38;1.40;;;;;;;34.28;26.02;97336.56;5028873;28;20476;-84
2022/06/14 12:09:42;;;;;;;7.38;1.80;;;;;;;34.28;26.28;97328.22;5027538;28;20124;-83
2022/06/14 12:13:01;;;;;;;7.60;1.60;;;;;;;34.35;26.86;97340.03;5014551;28;20057;-83
2022/06/14 12:15:49;;;;;;;18.92;2.35;;;;;;;34.83;26.87;97336.69;4971368;28;20023;-85
2022/06/14 12:18:16;;;;;;;6.53;2.00;;;;;;;35.04;27.83;97335.91;5012174;28;20029;-84
2022/06/14 12:21:12;;;;;;;6.78;2.08;;;;;;;35.29;26.73;97339.09;5031602;28;20396;-84
2022/06/14 12:23:51;;;;;;;6.78;2.58;;;;;;;35.64;27.01;97338.78;5021748;28;20033;-85
2022/06/14 12:26:41;;;;;;;5.68;1.70;;;;;;;35.70;26.23;97334.94;5031433;28;20554;-84